Airfield :







YOU CAN JOIN US ON...

 
LOGIN :

Register | Disclaimer

   EN    FR    IT 

 









Legend :    VFR   Marginal VFR   IFR   Intensive IFR   Very Intensive IFR
Visi :
Ceiling :
>= 8 km
>= 3000ft
5 to 8 km
1000 to 3000 ft
1500m to 5 km
500 to 1000 ft
800 to 1500m
200 to 500 ft
< 800m
< 200 ft
Symbols :   Thunderstorms  Fog  Heavy snow  Heavy precipitations  Wind > 20 kt







- Airport Elevation : 1709 ft
- IATA code : YKL


CYKL - Schefferville

CURRENT METAR :
  • 181200Z AUTO 32005KT 9SM BKN050 08/04 A3026 RMK SLP271

EXPIRED METARs :
  • 181100Z AUTO 36002KT 9SM BKN055 04/02 A3026 RMK SLP274
  • 181000Z AUTO 36002KT 9SM BKN055 04/02 A3025 RMK SLP268

TAF TAF CYKL
Valid from the 18 at 08:00 until the 18 at 20:00 UTC


180738Z 1808/1820 VRB03KT P6SM BKN060
TEMPO 1808/1813 FEW060
PROB30 1808/1813 2SM BR
FM181300 29009KT P6SM FEW020
BECMG 1814/1816 30012KT RMK FCST BASED ON AUTO OBS. NXT FCST BY 181400Z
No reported NOTAMs for that airfield.



MET'MAP, your aeronautical weather chart ! - Copyright ORBIFLY December 2007 - Disclaimer

ORBIFLY MET'MAP TEAM :

Programming & Development : Alexandra Zaïnal
Concept & Development : Baudouin d'Aumeries
Co-Development & Prog : Marc-Olivier Méhu
Technical & hardware support : Manuel Goepfert

Contact : metmap@orbifly.com




SOURCES & CREDITS :

   NOAA